Time;durP1;ratioP1;P1;durP2;ratioP2;P2;SDS_P1;SDS_P2;PMS_P1;PMS_P2;Temp;Humidity;BMP_temperature;BMP_pressure;BME280_temperature;BME280_humidity;BME280_pressure;Samples;Min_cycle;Max_cycle;Signal;HPM_P1;HPM_P2
2021/12/30 00:01:53;;;;;;;3.33;2.28;;;;;;;;;;5073980;28;20066;-38
2021/12/30 00:04:19;;;;;;;2.80;2.33;;;;;;;;;;5074157;28;20441;-39
2021/12/30 00:06:44;;;;;;;2.85;1.92;;;;;;;;;;5074174;28;20028;-38
2021/12/30 00:09:12;;;;;;;5.07;2.13;;;;;;;;;;5073817;28;20031;-38
2021/12/30 00:11:38;;;;;;;4.15;2.15;;;;;;;;;;5074091;28;20032;-37
2021/12/30 00:14:04;;;;;;;5.13;2.33;;;;;;;;;;5072420;28;20376;-38
2021/12/30 00:16:29;;;;;;;4.82;2.97;;;;;;;;;;5073704;28;20052;-38
2021/12/30 00:18:54;;;;;;;3.35;2.42;;;;;;;;;;5073566;28;20079;-38
2021/12/30 00:21:21;;;;;;;3.60;2.00;;;;;;;;;;5073846;28;20024;-38
2021/12/30 00:23:46;;;;;;;3.03;1.95;;;;;;;;;;5073961;28;20073;-39
2021/12/30 00:26:12;;;;;;;4.40;2.53;;;;;;;;;;5073383;28;20024;-38
2021/12/30 00:28:37;;;;;;;4.38;2.17;;;;;;;;;;5073824;28;20417;-38
2021/12/30 00:31:03;;;;;;;3.30;1.95;;;;;;;;;;5073725;28;20024;-37
2021/12/30 00:33:32;;;;;;;2.70;1.88;;;;;;;;;;5073193;28;20360;-38
2021/12/30 00:35:57;;;;;;;3.65;2.05;;;;;;;;;;5073300;28;20024;-38
2021/12/30 00:38:23;;;;;;;7.15;2.05;;;;;;;;;;5073121;28;20524;-38
2021/12/30 00:40:48;;;;;;;3.90;2.42;;;;;;;;;;5073550;28;20055;-38
2021/12/30 00:43:14;;;;;;;5.72;2.30;;;;;;;;;;5073491;28;20048;-37
2021/12/30 00:45:39;;;;;;;4.68;2.15;;;;;;;;;;5073388;28;20029;-38
2021/12/30 00:48:05;;;;;;;3.03;2.38;;;;;;;;;;5073266;28;20385;-38
2021/12/30 00:50:31;;;;;;;5.45;2.20;;;;;;;;;;5073044;28;20101;-38
2021/12/30 00:53:01;;;;;;;3.53;2.17;;;;;;;;;;5073041;28;20494;-38
2021/12/30 00:55:27;;;;;;;2.80;1.45;;;;;;;;;;5072988;28;20027;-38
2021/12/30 00:57:52;;;;;;;6.18;2.30;;;;;;;;;;5073113;28;20040;-38
2021/12/30 01:00:18;;;;;;;3.45;2.50;;;;;;;;;;5072770;28;20028;-38
2021/12/30 01:02:44;;;;;;;3.10;2.17;;;;;;;;;;5071539;28;20029;-38
2021/12/30 01:05:09;;;;;;;5.55;2.70;;;;;;;;;;5072950;28;20024;-37
2021/12/30 01:07:35;;;;;;;4.05;2.25;;;;;;;;;;5072718;28;20060;-38
2021/12/30 01:10:01;;;;;;;2.88;2.08;;;;;;;;;;5072632;28;20028;-37
2021/12/30 01:12:27;;;;;;;2.97;2.08;;;;;;;;;;5072570;28;20082;-38
2021/12/30 01:14:53;;;;;;;5.03;2.05;;;;;;;;;;5072715;28;20024;-38
2021/12/30 01:17:26;;;;;;;4.13;2.38;;;;;;;;;;5072554;28;20441;-38
2021/12/30 01:19:52;;;;;;;2.33;1.52;;;;;;;;;;5071263;28;20048;-38
2021/12/30 01:22:19;;;;;;;2.75;1.65;;;;;;;;;;5072239;28;20078;-37
2021/12/30 01:24:45;;;;;;;3.33;2.20;;;;;;;;;;5072446;28;20063;-37
2021/12/30 01:27:10;;;;;;;3.47;2.40;;;;;;;;;;5070966;28;20044;-38
2021/12/30 01:29:36;;;;;;;3.10;1.98;;;;;;;;;;5072316;28;20107;-37
2021/12/30 01:32:02;;;;;;;2.08;1.88;;;;;;;;;;5072288;28;20026;-40
2021/12/30 01:34:28;;;;;;;4.00;2.10;;;;;;;;;;5072168;28;20064;-38
2021/12/30 01:36:54;;;;;;;2.17;1.98;;;;;;;;;;5072170;28;20142;-37
2021/12/30 01:39:21;;;;;;;3.45;2.25;;;;;;;;;;5071809;28;20049;-37
2021/12/30 01:41:48;;;;;;;3.25;2.00;;;;;;;;;;5072428;28;20111;-37
2021/12/30 01:44:13;;;;;;;2.80;1.48;;;;;;;;;;5072232;28;20040;-38
2021/12/30 01:46:40;;;;;;;3.20;2.08;;;;;;;;;;5071852;28;20709;-37
2021/12/30 01:49:06;;;;;;;2.42;2.00;;;;;;;;;;5071452;28;20514;-37
2021/12/30 01:51:31;;;;;;;3.33;1.77;;;;;;;;;;5072103;28;20122;-37
2021/12/30 01:53:57;;;;;;;2.75;1.77;;;;;;;;;;5071933;28;20099;-37
2021/12/30 01:56:23;;;;;;;4.88;2.40;;;;;;;;;;5071765;28;20517;-38
2021/12/30 01:58:48;;;;;;;2.97;2.55;;;;;;;;;;5071672;28;20041;-37
2021/12/30 02:01:14;;;;;;;4.20;2.55;;;;;;;;;;5071714;28;20016;-37
2021/12/30 02:03:39;;;;;;;3.75;2.40;;;;;;;;;;5071761;28;20111;-37
2021/12/30 02:06:05;;;;;;;4.38;2.60;;;;;;;;;;5071723;28;20020;-37
2021/12/30 02:08:30;;;;;;;4.10;2.50;;;;;;;;;;5071748;28;20059;-38
2021/12/30 02:10:55;;;;;;;6.40;2.72;;;;;;;;;;5070262;28;20020;-39
2021/12/30 02:13:21;;;;;;;4.60;2.55;;;;;;;;;;5071723;28;20407;-37
2021/12/30 02:15:47;;;;;;;5.35;3.13;;;;;;;;;;5071497;28;20066;-37
2021/12/30 02:18:12;;;;;;;6.10;2.25;;;;;;;;;;5071298;28;20082;-37
2021/12/30 02:20:39;;;;;;;3.28;2.47;;;;;;;;;;5071827;28;20017;-37
2021/12/30 02:23:05;;;;;;;4.10;2.38;;;;;;;;;;5071648;28;20029;-37
2021/12/30 02:25:31;;;;;;;3.80;2.33;;;;;;;;;;5071687;28;20374;-38
2021/12/30 02:27:56;;;;;;;3.92;1.95;;;;;;;;;;5071709;28;20534;-37
2021/12/30 02:30:21;;;;;;;4.38;2.58;;;;;;;;;;5071356;28;20374;-38
2021/12/30 02:32:47;;;;;;;4.00;2.20;;;;;;;;;;5071586;28;20475;-38
2021/12/30 02:35:12;;;;;;;4.07;1.98;;;;;;;;;;5071468;28;20028;-37
2021/12/30 02:37:38;;;;;;;4.65;2.25;;;;;;;;;;5071155;28;20137;-39
2021/12/30 02:40:05;;;;;;;3.25;2.15;;;;;;;;;;5071261;28;20036;-38
2021/12/30 02:42:31;;;;;;;3.03;1.65;;;;;;;;;;5071359;28;20032;-38
2021/12/30 02:44:56;;;;;;;3.90;2.78;;;;;;;;;;5071532;28;20159;-38
2021/12/30 02:47:21;;;;;;;3.17;1.80;;;;;;;;;;5071438;28;20028;-38
2021/12/30 02:49:47;;;;;;;2.70;1.92;;;;;;;;;;5071284;28;20215;-38
2021/12/30 02:52:12;;;;;;;3.78;1.90;;;;;;;;;;5071143;28;20044;-37
2021/12/30 02:54:39;;;;;;;1.92;1.45;;;;;;;;;;5069820;28;20038;-37
2021/12/30 02:57:04;;;;;;;2.10;1.38;;;;;;;;;;5071130;28;20478;-38
2021/12/30 02:59:30;;;;;;;3.55;1.67;;;;;;;;;;5071981;28;20040;-38
2021/12/30 03:01:55;;;;;;;3.55;1.90;;;;;;;;;;5075086;28;20095;-38
2021/12/30 03:04:20;;;;;;;3.30;1.98;;;;;;;;;;5075098;28;20044;-38
2021/12/30 03:06:46;;;;;;;2.08;1.67;;;;;;;;;;5074992;28;20037;-38
2021/12/30 03:09:11;;;;;;;2.80;2.17;;;;;;;;;;5075231;28;20020;-37
2021/12/30 03:11:36;;;;;;;3.80;2.08;;;;;;;;;;5075287;28;20375;-37
2021/12/30 03:14:02;;;;;;;3.60;1.75;;;;;;;;;;5074923;28;20012;-37
2021/12/30 03:16:31;;;;;;;2.85;2.03;;;;;;;;;;5074978;28;20113;-37
2021/12/30 03:19:00;;;;;;;5.38;2.28;;;;;;;;;;5074694;28;20040;-38
2021/12/30 03:21:26;;;;;;;3.40;1.55;;;;;;;;;;5074773;28;20032;-38
2021/12/30 03:23:53;;;;;;;5.95;1.80;;;;;;;;;;5074680;28;20021;-37
2021/12/30 03:26:18;;;;;;;5.78;2.10;;;;;;;;;;5074795;28;20021;-37
2021/12/30 03:28:44;;;;;;;2.63;1.88;;;;;;;;;;5074948;28;20814;-38
2021/12/30 03:31:11;;;;;;;3.60;1.80;;;;;;;;;;5074467;28;20028;-37
2021/12/30 03:33:36;;;;;;;2.65;1.98;;;;;;;;;;5074546;28;20048;-38
2021/12/30 03:36:04;;;;;;;3.40;2.15;;;;;;;;;;5074739;28;20060;-38
2021/12/30 03:38:31;;;;;;;2.75;2.08;;;;;;;;;;5074053;28;20049;-38
2021/12/30 03:40:56;;;;;;;2.72;1.60;;;;;;;;;;5074497;28;20478;-38
2021/12/30 03:43:22;;;;;;;4.38;1.92;;;;;;;;;;5074273;28;20060;-38
2021/12/30 03:45:47;;;;;;;2.67;1.73;;;;;;;;;;5074559;28;20075;-38
2021/12/30 03:48:13;;;;;;;3.53;2.33;;;;;;;;;;5072939;28;20470;-37
2021/12/30 03:50:44;;;;;;;2.97;1.10;;;;;;;;;;5074186;28;20190;-37
2021/12/30 03:53:10;;;;;;;2.20;1.27;;;;;;;;;;5074131;28;20035;-38
2021/12/30 03:55:36;;;;;;;2.40;1.88;;;;;;;;;;5074366;28;20062;-38
2021/12/30 03:58:02;;;;;;;2.22;1.52;;;;;;;;;;5074044;28;20453;-37
2021/12/30 04:00:27;;;;;;;2.70;1.85;;;;;;;;;;5073987;28;20025;-38
2021/12/30 04:02:53;;;;;;;3.55;2.08;;;;;;;;;;5089945;28;20040;-37
2021/12/30 04:05:20;;;;;;;3.45;1.85;;;;;;;;;;5073965;28;20500;-38
2021/12/30 04:07:45;;;;;;;4.78;2.92;;;;;;;;;;5073832;28;20044;-37
2021/12/30 04:10:13;;;;;;;2.50;1.65;;;;;;;;;;5073635;28;20028;-37
2021/12/30 04:12:38;;;;;;;2.58;1.65;;;;;;;;;;5073853;28;20025;-38
2021/12/30 04:15:04;;;;;;;2.22;1.67;;;;;;;;;;5073688;28;20124;-38
2021/12/30 04:17:30;;;;;;;2.58;1.67;;;;;;;;;;5073990;28;20032;-37
2021/12/30 04:19:56;;;;;;;2.55;1.33;;;;;;;;;;5073970;28;20532;-37
2021/12/30 04:22:21;;;;;;;3.97;2.13;;;;;;;;;;5073543;28;20028;-38
2021/12/30 04:24:46;;;;;;;2.85;1.80;;;;;;;;;;5073943;28;20039;-37
2021/12/30 04:27:12;;;;;;;3.30;1.90;;;;;;;;;;5073781;28;20063;-38
2021/12/30 04:29:38;;;;;;;1.77;1.23;;;;;;;;;;5073587;28;20055;-38
2021/12/30 04:32:04;;;;;;;3.15;1.75;;;;;;;;;;5073561;28;20074;-38
2021/12/30 04:34:29;;;;;;;2.17;1.25;;;;;;;;;;5073286;28;20074;-37
2021/12/30 04:36:58;;;;;;;2.95;1.80;;;;;;;;;;5073392;28;20398;-37
2021/12/30 04:39:27;;;;;;;4.60;1.30;;;;;;;;;;5073044;28;20048;-38
2021/12/30 04:41:52;;;;;;;3.92;1.85;;;;;;;;;;5073565;28;20033;-38
2021/12/30 04:44:18;;;;;;;3.72;1.90;;;;;;;;;;5073229;28;20032;-37
2021/12/30 04:46:43;;;;;;;2.65;1.50;;;;;;;;;;5073506;28;20035;-38
2021/12/30 04:49:09;;;;;;;1.63;1.52;;;;;;;;;;5073088;28;20051;-38
2021/12/30 04:51:34;;;;;;;1.52;1.25;;;;;;;;;;5073353;28;20029;-38
2021/12/30 04:54:00;;;;;;;1.17;1.08;;;;;;;;;;5073441;28;20347;-37
2021/12/30 04:56:25;;;;;;;2.00;1.10;;;;;;;;;;5072832;28;20378;-38
2021/12/30 04:58:50;;;;;;;2.20;1.45;;;;;;;;;;5072863;28;20111;-38
2021/12/30 05:01:16;;;;;;;1.85;1.00;;;;;;;;;;5072853;28;20037;-37
2021/12/30 05:03:41;;;;;;;3.53;1.98;;;;;;;;;;5072759;28;20108;-38
2021/12/30 05:06:07;;;;;;;2.13;1.33;;;;;;;;;;5073016;28;20032;-37
2021/12/30 05:08:33;;;;;;;10.38;1.67;;;;;;;;;;5072833;28;20513;-37
2021/12/30 05:10:58;;;;;;;2.88;1.33;;;;;;;;;;5072915;28;20036;-37
2021/12/30 05:13:24;;;;;;;2.85;1.50;;;;;;;;;;5071346;28;20023;-37
2021/12/30 05:15:50;;;;;;;1.77;1.08;;;;;;;;;;5072584;28;20082;-37
2021/12/30 05:18:16;;;;;;;2.78;1.55;;;;;;;;;;5072379;28;20060;-37
2021/12/30 05:20:42;;;;;;;1.33;1.05;;;;;;;;;;5072832;28;20025;-37
2021/12/30 05:23:08;;;;;;;1.23;1.02;;;;;;;;;;5071520;28;20090;-39
2021/12/30 05:25:33;;;;;;;3.65;1.67;;;;;;;;;;5072412;28;20154;-38
2021/12/30 05:27:59;;;;;;;2.35;1.75;;;;;;;;;;5072479;28;20024;-38
2021/12/30 05:30:24;;;;;;;2.20;1.27;;;;;;;;;;5072216;28;20032;-37
2021/12/30 05:32:51;;;;;;;3.53;1.55;;;;;;;;;;5072546;28;20020;-38
2021/12/30 05:35:16;;;;;;;2.70;1.42;;;;;;;;;;5072016;28;20497;-38
2021/12/30 05:37:42;;;;;;;2.60;1.80;;;;;;;;;;5071942;28;20024;-38
2021/12/30 05:40:09;;;;;;;1.63;0.98;;;;;;;;;;5072426;28;20060;-37
2021/12/30 05:42:34;;;;;;;2.97;1.77;;;;;;;;;;5072102;28;20035;-38
2021/12/30 05:45:00;;;;;;;1.67;1.08;;;;;;;;;;5072067;28;20111;-38
2021/12/30 05:47:25;;;;;;;2.00;1.25;;;;;;;;;;5072128;28;20474;-37
2021/12/30 05:49:51;;;;;;;2.03;1.27;;;;;;;;;;5072302;28;20112;-37
2021/12/30 05:52:16;;;;;;;2.15;1.40;;;;;;;;;;5072118;28;20046;-37
2021/12/30 05:54:43;;;;;;;1.98;1.45;;;;;;;;;;5071894;28;20427;-37
2021/12/30 05:57:08;;;;;;;3.85;1.30;;;;;;;;;;5072094;28;20059;-37
2021/12/30 05:59:34;;;;;;;2.75;1.83;;;;;;;;;;5071721;28;20040;-39
2021/12/30 06:01:59;;;;;;;2.65;1.75;;;;;;;;;;5071722;28;20027;-37
2021/12/30 06:04:25;;;;;;;1.02;0.93;;;;;;;;;;5071964;28;20039;-37
2021/12/30 06:06:51;;;;;;;1.90;1.30;;;;;;;;;;5071614;28;20027;-37
2021/12/30 06:09:16;;;;;;;3.00;1.80;;;;;;;;;;5071848;28;20025;-38
2021/12/30 06:11:42;;;;;;;3.90;1.50;;;;;;;;;;5072012;28;20033;-37
2021/12/30 06:14:07;;;;;;;2.33;1.38;;;;;;;;;;5071753;28;20046;-38
2021/12/30 06:16:33;;;;;;;5.38;1.23;;;;;;;;;;5071649;28;20550;-37
2021/12/30 06:18:59;;;;;;;2.88;1.50;;;;;;;;;;5071699;28;20078;-37
2021/12/30 06:21:25;;;;;;;4.82;1.40;;;;;;;;;;5071708;28;20498;-37
2021/12/30 06:23:51;;;;;;;3.50;1.52;;;;;;;;;;5071812;28;20028;-37
2021/12/30 06:26:16;;;;;;;3.15;1.15;;;;;;;;;;5071316;28;20467;-37
2021/12/30 06:28:41;;;;;;;1.60;1.30;;;;;;;;;;5071470;28;20028;-38
2021/12/30 06:31:07;;;;;;;2.22;1.00;;;;;;;;;;5071774;28;20017;-37
2021/12/30 06:33:33;;;;;;;2.85;1.42;;;;;;;;;;5071235;28;20062;-38
2021/12/30 06:35:58;;;;;;;2.17;1.50;;;;;;;;;;5071206;28;20017;-37
2021/12/30 06:38:24;;;;;;;2.45;1.00;;;;;;;;;;5070969;28;20495;-37
2021/12/30 06:40:49;;;;;;;2.05;1.88;;;;;;;;;;5071356;28;20033;-37
2021/12/30 06:43:15;;;;;;;1.05;0.90;;;;;;;;;;5071249;28;20028;-38
2021/12/30 06:45:40;;;;;;;2.47;1.65;;;;;;;;;;5071274;28;20025;-37
2021/12/30 06:48:07;;;;;;;2.05;1.30;;;;;;;;;;5071257;28;20041;-37
2021/12/30 06:50:33;;;;;;;2.72;2.03;;;;;;;;;;5071127;28;20447;-37
2021/12/30 06:52:59;;;;;;;4.53;1.67;;;;;;;;;;5071204;28;20029;-37
2021/12/30 06:55:25;;;;;;;1.50;1.17;;;;;;;;;;5071355;28;20024;-38
2021/12/30 06:57:51;;;;;;;2.20;1.27;;;;;;;;;;5069769;28;20398;-37
2021/12/30 07:00:17;;;;;;;2.05;1.42;;;;;;;;;;5071165;28;20056;-37
2021/12/30 07:02:43;;;;;;;2.50;1.30;;;;;;;;;;5071066;28;20075;-37
2021/12/30 07:05:10;;;;;;;1.77;1.40;;;;;;;;;;5070945;28;20112;-37
2021/12/30 07:07:35;;;;;;;1.98;1.52;;;;;;;;;;5071082;28;20471;-38
2021/12/30 07:10:00;;;;;;;1.00;0.95;;;;;;;;;;5069587;28;20025;-37
2021/12/30 07:12:26;;;;;;;1.58;1.48;;;;;;;;;;5071188;28;20487;-37
2021/12/30 07:14:52;;;;;;;2.30;1.50;;;;;;;;;;5070925;28;20016;-37
2021/12/30 07:17:18;;;;;;;1.75;1.50;;;;;;;;;;5070857;28;20099;-37
2021/12/30 07:19:43;;;;;;;4.95;1.88;;;;;;;;;;5069610;28;20132;-38
2021/12/30 07:22:09;;;;;;;1.25;0.80;;;;;;;;;;5071027;28;20032;-37
2021/12/30 07:24:34;;;;;;;2.50;1.10;;;;;;;;;;5070860;28;20031;-38
2021/12/30 07:27:00;;;;;;;2.95;1.42;;;;;;;;;;5071186;28;20024;-37
2021/12/30 07:29:25;;;;;;;2.47;1.55;;;;;;;;;;5070790;28;20062;-37
2021/12/30 07:31:50;;;;;;;3.30;1.30;;;;;;;;;;5070900;28;20479;-38
2021/12/30 07:34:16;;;;;;;1.42;1.33;;;;;;;;;;5070631;28;20504;-38
2021/12/30 07:36:42;;;;;;;1.83;1.23;;;;;;;;;;5071149;28;20021;-38
2021/12/30 07:39:07;;;;;;;2.33;1.55;;;;;;;;;;5070569;28;20445;-38
2021/12/30 07:41:33;;;;;;;3.33;1.27;;;;;;;;;;5070693;28;20029;-38
2021/12/30 07:43:59;;;;;;;2.95;1.80;;;;;;;;;;5071011;28;20086;-38
2021/12/30 07:46:24;;;;;;;3.47;1.85;;;;;;;;;;5072733;28;20502;-37
2021/12/30 07:48:50;;;;;;;5.38;2.33;;;;;;;;;;5074396;28;20016;-37
2021/12/30 07:51:15;;;;;;;1.88;1.08;;;;;;;;;;5074253;28;20131;-37
2021/12/30 07:53:41;;;;;;;1.42;1.20;;;;;;;;;;5074218;28;20024;-37
2021/12/30 07:56:09;;;;;;;2.08;1.20;;;;;;;;;;5074143;28;20032;-38
2021/12/30 07:58:35;;;;;;;2.35;1.10;;;;;;;;;;5074062;28;20028;-37
2021/12/30 08:01:00;;;;;;;3.78;3.00;;;;;;;;;;5074378;28;20597;-38
2021/12/30 08:03:26;;;;;;;2.22;1.40;;;;;;;;;;5073942;28;20031;-37
2021/12/30 08:05:52;;;;;;;2.20;1.70;;;;;;;;;;5074196;28;20490;-37
2021/12/30 08:08:17;;;;;;;1.50;1.10;;;;;;;;;;5073809;28;20020;-37
2021/12/30 08:10:43;;;;;;;1.48;1.08;;;;;;;;;;5089585;28;20068;-37
2021/12/30 08:13:08;;;;;;;1.75;0.98;;;;;;;;;;5074108;28;20020;-38
2021/12/30 08:15:34;;;;;;;3.47;0.95;;;;;;;;;;5073662;28;20033;-38
2021/12/30 08:17:59;;;;;;;1.98;1.50;;;;;;;;;;5073684;28;20040;-38
2021/12/30 08:20:27;;;;;;;2.00;1.10;;;;;;;;;;5073908;28;20036;-38
2021/12/30 08:22:53;;;;;;;1.98;1.23;;;;;;;;;;5073660;28;20074;-38
2021/12/30 08:25:19;;;;;;;2.40;1.40;;;;;;;;;;5073523;28;20115;-37
2021/12/30 08:27:44;;;;;;;1.80;1.50;;;;;;;;;;5072378;28;20108;-37
2021/12/30 08:30:12;;;;;;;2.47;1.55;;;;;;;;;;5073370;28;20025;-38
2021/12/30 08:32:37;;;;;;;3.45;1.00;;;;;;;;;;5073508;28;20079;-38
2021/12/30 08:35:03;;;;;;;1.38;1.10;;;;;;;;;;5073491;28;20502;-37
2021/12/30 08:37:28;;;;;;;1.88;1.10;;;;;;;;;;5073282;28;20060;-38
2021/12/30 08:39:54;;;;;;;1.33;0.93;;;;;;;;;;5073342;28;20079;-37
2021/12/30 08:42:27;;;;;;;1.83;1.00;;;;;;;;;;5073357;28;20108;-37
2021/12/30 08:44:53;;;;;;;3.28;1.45;;;;;;;;;;5073512;28;20036;-38
2021/12/30 08:47:19;;;;;;;3.05;1.38;;;;;;;;;;5073207;28;20105;-37
2021/12/30 08:49:46;;;;;;;1.77;1.67;;;;;;;;;;5073167;28;20453;-38
2021/12/30 08:52:16;;;;;;;1.40;1.10;;;;;;;;;;5073345;28;20061;-37
2021/12/30 08:54:41;;;;;;;0.98;0.82;;;;;;;;;;5073011;28;20060;-37
2021/12/30 08:57:07;;;;;;;1.55;1.05;;;;;;;;;;5073066;28;20052;-38
2021/12/30 08:59:34;;;;;;;2.65;1.55;;;;;;;;;;5072828;28;20512;-37
2021/12/30 09:02:00;;;;;;;1.15;0.80;;;;;;;;;;5073143;28;20415;-37
2021/12/30 09:04:26;;;;;;;0.90;0.70;;;;;;;;;;5071447;28;20094;-38
2021/12/30 09:06:52;;;;;;;1.92;1.05;;;;;;;;;;5073126;28;20024;-37
2021/12/30 09:09:18;;;;;;;0.73;0.73;;;;;;;;;;5072771;28;20032;-38
2021/12/30 09:11:43;;;;;;;1.50;1.05;;;;;;;;;;5072694;28;20382;-38
2021/12/30 09:14:09;;;;;;;1.40;0.88;;;;;;;;;;5072632;28;20031;-37
2021/12/30 09:16:34;;;;;;;0.50;0.50;;;;;;;;;;5072613;28;20022;-38
2021/12/30 09:19:00;;;;;;;1.15;0.60;;;;;;;;;;5072647;28;20056;-37
2021/12/30 09:21:25;;;;;;;1.77;1.25;;;;;;;;;;5072476;28;20045;-38
2021/12/30 09:23:51;;;;;;;2.92;0.98;;;;;;;;;;5072432;28;20386;-37
2021/12/30 09:26:17;;;;;;;0.52;0.52;;;;;;;;;;5072292;28;20158;-38
2021/12/30 09:28:42;;;;;;;1.65;0.55;;;;;;;;;;5072422;28;20153;-38
2021/12/30 09:31:08;;;;;;;0.85;0.57;;;;;;;;;;5071075;28;20121;-38
2021/12/30 09:33:33;;;;;;;0.93;0.68;;;;;;;;;;5072155;28;20036;-37
2021/12/30 09:36:02;;;;;;;0.98;0.80;;;;;;;;;;5072331;28;20021;-38
2021/12/30 09:38:27;;;;;;;2.60;0.95;;;;;;;;;;5071874;28;20048;-37
2021/12/30 09:40:54;;;;;;;1.13;0.73;;;;;;;;;;5072482;28;20039;-38
2021/12/30 09:43:20;;;;;;;8.98;1.02;;;;;;;;;;5072048;28;20099;-37
2021/12/30 09:45:46;;;;;;;2.78;1.00;;;;;;;;;;5072028;28;20440;-37
2021/12/30 09:48:13;;;;;;;0.60;0.60;;;;;;;;;;5072328;28;20016;-37
2021/12/30 09:50:41;;;;;;;0.98;0.65;;;;;;;;;;5072311;28;20104;-38
2021/12/30 09:53:07;;;;;;;0.50;0.50;;;;;;;;;;5071947;28;20029;-37
2021/12/30 09:55:33;;;;;;;0.55;0.55;;;;;;;;;;5072036;28;20035;-37
2021/12/30 09:57:59;;;;;;;0.75;0.60;;;;;;;;;;5071815;28;20029;-37
2021/12/30 10:00:25;;;;;;;0.80;0.80;;;;;;;;;;5071831;28;20032;-37
2021/12/30 10:02:51;;;;;;;0.85;0.52;;;;;;;;;;5071747;28;20107;-38
2021/12/30 10:05:18;;;;;;;5.22;0.60;;;;;;;;;;5070375;28;20016;-37
2021/12/30 10:07:43;;;;;;;0.95;0.73;;;;;;;;;;5072055;28;20032;-38
2021/12/30 10:10:26;;;;;;;1.70;0.75;;;;;;;;;;5071192;28;20467;-37
2021/12/30 10:12:52;;;;;;;0.80;0.80;;;;;;;;;;5071680;28;20506;-37
2021/12/30 10:15:19;;;;;;;0.50;0.50;;;;;;;;;;5070192;28;20033;-38
2021/12/30 10:17:52;;;;;;;1.15;0.90;;;;;;;;;;5071687;28;20391;-37
2021/12/30 10:20:18;;;;;;;1.48;1.10;;;;;;;;;;5071442;28;20570;-37
2021/12/30 10:22:44;;;;;;;0.80;0.60;;;;;;;;;;5071850;28;20123;-38
2021/12/30 10:25:29;;;;;;;2.05;0.80;;;;;;;;;;5071396;28;20037;-38
2021/12/30 10:27:55;;;;;;;0.73;0.60;;;;;;;;;;5071561;28;20475;-37
2021/12/30 10:30:34;;;;;;;1.35;0.80;;;;;;;;;;5071206;28;20111;-38
2021/12/30 10:33:10;;;;;;;0.77;0.45;;;;;;;;;;5071488;28;20474;-39
2021/12/30 10:35:36;;;;;;;2.13;0.50;;;;;;;;;;5071373;28;20486;-38
2021/12/30 10:38:08;;;;;;;1.58;0.90;;;;;;;;;;5071051;28;20113;-38
2021/12/30 10:40:33;;;;;;;1.00;0.77;;;;;;;;;;5071271;28;20044;-38
2021/12/30 10:43:20;;;;;;;0.50;0.40;;;;;;;;;;5071646;28;20039;-37
2021/12/30 10:46:00;;;;;;;0.38;0.38;;;;;;;;;;5071492;28;20025;-37
2021/12/30 10:48:26;;;;;;;1.23;0.80;;;;;;;;;;5071215;28;20074;-37
2021/12/30 10:51:07;;;;;;;0.77;0.68;;;;;;;;;;5071224;28;20025;-38
2021/12/30 10:53:35;;;;;;;0.50;0.50;;;;;;;;;;5071385;28;20095;-38
2021/12/30 10:56:17;;;;;;;3.22;0.88;;;;;;;;;;5071218;28;20032;-38
2021/12/30 10:58:43;;;;;;;1.10;0.55;;;;;;;;;;5071050;28;20109;-38
2021/12/30 11:01:13;;;;;;;0.60;0.57;;;;;;;;;;5071089;28;20104;-38
2021/12/30 11:03:42;;;;;;;0.60;0.60;;;;;;;;;;5070992;28;20483;-38
2021/12/30 11:06:17;;;;;;;0.60;0.28;;;;;;;;;;5071012;28;20532;-37
2021/12/30 11:08:42;;;;;;;1.42;0.80;;;;;;;;;;5071121;28;20094;-37
2021/12/30 11:11:24;;;;;;;0.88;0.73;;;;;;;;;;5070914;28;20024;-37
2021/12/30 11:14:06;;;;;;;0.88;0.30;;;;;;;;;;5071015;28;20068;-38
2021/12/30 11:16:33;;;;;;;0.70;0.47;;;;;;;;;;5070877;28;20037;-37
2021/12/30 11:18:59;;;;;;;0.80;0.45;;;;;;;;;;5070902;28;20376;-37
2021/12/30 11:21:36;;;;;;;0.38;0.38;;;;;;;;;;5072831;28;20124;-38
2021/12/30 11:24:03;;;;;;;0.30;0.30;;;;;;;;;;5075048;28;20040;-37
2021/12/30 11:26:28;;;;;;;1.00;0.70;;;;;;;;;;5074599;28;20024;-37
2021/12/30 11:28:54;;;;;;;0.75;0.70;;;;;;;;;;5074765;28;20033;-37
2021/12/30 11:31:20;;;;;;;0.47;0.30;;;;;;;;;;5074521;28;20021;-37
2021/12/30 11:33:45;;;;;;;1.55;0.82;;;;;;;;;;5074863;28;20025;-38
2021/12/30 11:36:11;;;;;;;0.90;0.85;;;;;;;;;;5074870;28;20032;-38
2021/12/30 11:38:37;;;;;;;0.40;0.40;;;;;;;;;;5074340;28;20059;-37
2021/12/30 11:41:02;;;;;;;0.95;0.55;;;;;;;;;;5074745;28;20394;-37
2021/12/30 11:43:41;;;;;;;0.80;0.80;;;;;;;;;;5074335;28;20033;-37
2021/12/30 11:46:06;;;;;;;6.15;0.50;;;;;;;;;;5074376;28;20028;-37
2021/12/30 11:48:38;;;;;;;0.90;0.45;;;;;;;;;;5074119;28;20026;-38
2021/12/30 11:51:03;;;;;;;0.77;0.70;;;;;;;;;;5074357;28;20447;-38
2021/12/30 11:53:29;;;;;;;1.05;0.40;;;;;;;;;;5074436;28;20063;-38
2021/12/30 11:56:02;;;;;;;0.73;0.63;;;;;;;;;;5074098;28;20475;-41
2021/12/30 11:58:27;;;;;;;0.65;0.63;;;;;;;;;;5074316;28;20435;-37
2021/12/30 12:00:53;;;;;;;0.85;0.85;;;;;;;;;;5074054;28;20056;-37
2021/12/30 12:03:31;;;;;;;0.80;0.77;;;;;;;;;;5073890;28;20074;-38
2021/12/30 12:05:57;;;;;;;0.60;0.45;;;;;;;;;;5073987;28;20107;-37
2021/12/30 12:08:30;;;;;;;3.65;0.88;;;;;;;;;;5074044;28;20653;-37
2021/12/30 12:11:10;;;;;;;1.33;0.80;;;;;;;;;;5073967;28;20085;-37
2021/12/30 12:13:37;;;;;;;0.93;0.60;;;;;;;;;;5073817;28;20120;-37
2021/12/30 12:16:03;;;;;;;0.77;0.68;;;;;;;;;;5073848;28;20017;-37
2021/12/30 12:18:29;;;;;;;1.55;0.60;;;;;;;;;;5073691;28;20047;-37
2021/12/30 12:20:56;;;;;;;0.60;0.60;;;;;;;;;;5073857;28;20077;-37
2021/12/30 12:23:38;;;;;;;2.97;0.90;;;;;;;;;;5073829;28;20032;-38
2021/12/30 12:26:12;;;;;;;1.83;1.13;;;;;;;;;;5073653;28;20510;-37
2021/12/30 12:28:38;;;;;;;0.70;0.60;;;;;;;;;;5073849;28;20470;-37
2021/12/30 12:31:06;;;;;;;4.72;0.85;;;;;;;;;;5073612;28;20020;-37
2021/12/30 12:33:33;;;;;;;1.27;0.85;;;;;;;;;;5073325;28;20475;-38
2021/12/30 12:35:59;;;;;;;1.58;0.75;;;;;;;;;;5073565;28;20031;-38
2021/12/30 12:38:43;;;;;;;4.15;1.42;;;;;;;;;;5073084;28;20060;-37
2021/12/30 12:41:38;;;;;;;1.15;0.70;;;;;;;;;;5073422;28;20048;-38
2021/12/30 12:44:03;;;;;;;2.15;1.08;;;;;;;;;;5064330;28;20048;-37
2021/12/30 12:46:44;;;;;;;1.77;1.13;;;;;;;;;;5073160;28;20020;-37
2021/12/30 12:49:10;;;;;;;2.30;1.02;;;;;;;;;;5073506;28;20387;-38
2021/12/30 12:51:36;;;;;;;1.77;1.00;;;;;;;;;;5073089;28;20021;-37
2021/12/30 12:54:05;;;;;;;2.10;1.05;;;;;;;;;;5073394;28;20425;-38
2021/12/30 12:56:38;;;;;;;1.27;0.82;;;;;;;;;;5072983;28;20032;-37
2021/12/30 12:59:05;;;;;;;2.55;0.90;;;;;;;;;;5073218;28;20045;-37
2021/12/30 13:01:31;;;;;;;1.40;0.65;;;;;;;;;;5073228;28;20069;-37
2021/12/30 13:03:58;;;;;;;0.80;0.80;;;;;;;;;;5072932;28;20028;-37
2021/12/30 13:06:25;;;;;;;1.88;1.13;;;;;;;;;;5072998;28;20094;-38
2021/12/30 13:08:51;;;;;;;1.05;0.90;;;;;;;;;;5072843;28;20032;-37
2021/12/30 13:11:25;;;;;;;1.52;0.98;;;;;;;;;;5072691;28;20031;-38
2021/12/30 13:13:51;;;;;;;1.05;0.90;;;;;;;;;;5072695;28;20605;-37
2021/12/30 13:16:33;;;;;;;1.98;1.30;;;;;;;;;;5072719;28;20021;-38
2021/12/30 13:19:08;;;;;;;1.85;1.10;;;;;;;;;;5072542;28;20032;-37
2021/12/30 13:21:37;;;;;;;2.13;1.05;;;;;;;;;;5072518;28;20074;-39
2021/12/30 13:24:03;;;;;;;1.63;1.00;;;;;;;;;;5072432;28;20037;-38
2021/12/30 13:26:36;;;;;;;1.58;1.10;;;;;;;;;;5073034;28;20032;-37
2021/12/30 13:29:01;;;;;;;1.73;1.40;;;;;;;;;;5072709;28;20025;-37
2021/12/30 13:31:31;;;;;;;3.95;1.20;;;;;;;;;;5072266;28;20467;-37
2021/12/30 13:34:00;;;;;;;2.80;1.13;;;;;;;;;;5072365;28;20025;-37
2021/12/30 13:36:27;;;;;;;1.20;1.02;;;;;;;;;;5072414;28;20078;-38
2021/12/30 13:38:53;;;;;;;0.77;0.73;;;;;;;;;;5072052;28;20052;-37
2021/12/30 13:41:20;;;;;;;1.77;0.93;;;;;;;;;;5072123;28;20036;-37
2021/12/30 13:43:46;;;;;;;0.70;0.70;;;;;;;;;;5071670;28;20025;-37
2021/12/30 13:46:14;;;;;;;1.00;0.90;;;;;;;;;;5072427;28;20508;-37
2021/12/30 13:48:41;;;;;;;3.03;1.17;;;;;;;;;;5071947;28;20028;-37
2021/12/30 13:51:07;;;;;;;1.05;0.80;;;;;;;;;;5072056;28;20024;-37
2021/12/30 13:53:34;;;;;;;1.55;0.75;;;;;;;;;;5071801;28;20503;-37
2021/12/30 13:56:00;;;;;;;0.85;0.85;;;;;;;;;;5072016;28;20043;-37
2021/12/30 13:58:29;;;;;;;1.15;0.88;;;;;;;;;;5072052;28;20443;-37
2021/12/30 14:01:03;;;;;;;2.60;1.20;;;;;;;;;;5072126;28;20032;-37
2021/12/30 14:03:29;;;;;;;2.80;1.25;;;;;;;;;;5071969;28;20028;-37
2021/12/30 14:06:10;;;;;;;1.67;1.02;;;;;;;;;;5071994;28;20073;-38
2021/12/30 14:08:37;;;;;;;0.93;0.77;;;;;;;;;;5072017;28;20107;-37
2021/12/30 14:11:03;;;;;;;2.35;1.40;;;;;;;;;;5071628;28;20066;-37
2021/12/30 14:13:38;;;;;;;1.58;0.93;;;;;;;;;;5071544;28;20078;-38
2021/12/30 14:16:09;;;;;;;1.25;0.77;;;;;;;;;;5071620;28;20111;-37
2021/12/30 14:18:36;;;;;;;0.90;0.85;;;;;;;;;;5071402;28;20115;-37
2021/12/30 14:21:02;;;;;;;3.80;1.20;;;;;;;;;;5071804;28;20059;-42
2021/12/30 14:23:37;;;;;;;2.83;1.08;;;;;;;;;;5071463;28;20475;-38
2021/12/30 14:26:17;;;;;;;0.95;0.68;;;;;;;;;;5071531;28;20040;-38
2021/12/30 14:29:03;;;;;;;1.10;0.50;;;;;;;;;;5071794;28;20052;-42
2021/12/30 14:31:30;;;;;;;1.20;0.68;;;;;;;;;;5071384;28;20028;-38
2021/12/30 14:34:03;;;;;;;0.50;0.50;;;;;;;;;;5087005;28;20054;-38
2021/12/30 14:36:29;;;;;;;0.98;0.80;;;;;;;;;;5071307;28;20063;-38
2021/12/30 14:38:55;;;;;;;0.63;0.55;;;;;;;;;;5071223;28;20514;-38
2021/12/30 14:41:21;;;;;;;1.27;0.90;;;;;;;;;;5071229;28;20628;-38
2021/12/30 14:44:05;;;;;;;1.75;1.05;;;;;;;;;;5071644;28;20039;-38